Time;durP1;ratioP1;P1;durP2;ratioP2;P2;SDS_P1;SDS_P2;PMS_P1;PMS_P2;Temp;Humidity;BMP_temperature;BMP_pressure;BME280_temperature;BME280_humidity;BME280_pressure;Samples;Min_cycle;Max_cycle;Signal;HPM_P1;HPM_P2
2022/01/13 00:00:19;;;;;;;117.13;36.97;;;;;;;;;;5024324;28;20390;-81
2022/01/13 00:02:46;;;;;;;121.88;38.00;;;;;;;;;;5041746;28;20044;-81
2022/01/13 00:05:12;;;;;;;120.68;35.35;;;;;;;;;;5035906;28;20114;-81
2022/01/13 00:07:38;;;;;;;107.47;34.03;;;;;;;;;;5043285;28;20044;-81
2022/01/13 00:10:05;;;;;;;111.63;34.63;;;;;;;;;;5043130;28;20037;-81
2022/01/13 00:12:37;;;;;;;109.20;34.03;;;;;;;;;;5001594;28;20524;-81
2022/01/13 00:25:17;;;;;;;110.13;33.05;;;;;;;;;;5040059;28;20090;-80
2022/01/13 00:27:50;;;;;;;114.80;31.75;;;;;;;;;;5031283;28;20045;-81
2022/01/13 00:30:18;;;;;;;90.78;30.20;;;;;;;;;;5051388;28;20056;-79
2022/01/13 00:32:45;;;;;;;117.88;31.95;;;;;;;;;;5051797;28;20108;-83
2022/01/13 00:35:11;;;;;;;106.78;29.52;;;;;;;;;;5042367;28;20493;-80
2022/01/13 00:37:37;;;;;;;103.32;33.28;;;;;;;;;;5029413;28;20558;-80
2022/01/13 00:40:07;;;;;;;111.53;31.70;;;;;;;;;;5029305;28;20449;-79
2022/01/13 00:42:33;;;;;;;104.75;29.92;;;;;;;;;;5029333;28;20045;-80
2022/01/13 00:45:01;;;;;;;105.82;30.30;;;;;;;;;;5031785;28;20226;-81
2022/01/13 00:47:29;;;;;;;113.93;28.65;;;;;;;;;;5047622;28;20099;-80
2022/01/13 00:49:57;;;;;;;115.63;30.08;;;;;;;;;;5045691;28;20041;-80
2022/01/13 00:52:25;;;;;;;101.13;26.98;;;;;;;;;;5036425;28;20053;-81
2022/01/13 00:54:51;;;;;;;106.10;27.13;;;;;;;;;;5014410;28;20056;-79
2022/01/13 00:57:17;;;;;;;114.38;26.83;;;;;;;;;;5045099;28;20044;-79
2022/01/13 00:59:43;;;;;;;76.32;23.00;;;;;;;;;;5046126;28;20496;-82
2022/01/13 01:02:09;;;;;;;116.90;27.13;;;;;;;;;;5046775;28;20033;-80
2022/01/13 01:04:36;;;;;;;91.90;24.95;;;;;;;;;;5024097;28;20125;-80
2022/01/13 01:07:02;;;;;;;87.57;23.27;;;;;;;;;;5048414;28;20060;-79
2022/01/13 01:09:47;;;;;;;83.30;23.00;;;;;;;;;;5048066;28;20052;-79
2022/01/13 01:12:14;;;;;;;84.13;24.80;;;;;;;;;;5030739;28;20159;-80
2022/01/13 01:14:46;;;;;;;107.43;27.48;;;;;;;;;;5048572;28;20077;-79
2022/01/13 01:17:16;;;;;;;86.88;23.77;;;;;;;;;;5030721;28;20068;-80
2022/01/13 01:19:48;;;;;;;102.32;25.48;;;;;;;;;;5047615;28;20049;-80
2022/01/13 01:22:31;;;;;;;99.10;25.60;;;;;;;;;;5029139;28;20084;-80
2022/01/13 01:27:41;;;;;;;118.68;27.13;;;;;;;;;;5028051;28;20077;-80
2022/01/13 01:30:22;;;;;;;131.88;27.15;;;;;;;;;;5028557;28;20080;-80
2022/01/13 01:32:49;;;;;;;114.30;23.77;;;;;;;;;;5031835;28;20053;-80
2022/01/13 01:35:17;;;;;;;136.35;26.23;;;;;;;;;;5047555;28;20041;-80
2022/01/13 01:37:43;;;;;;;137.27;23.20;;;;;;;;;;5046498;28;20049;-80
2022/01/13 01:40:10;;;;;;;68.15;17.20;;;;;;;;;;5044060;28;20124;-80
2022/01/13 01:42:37;;;;;;;100.22;21.23;;;;;;;;;;5025424;28;20400;-81
2022/01/13 01:45:04;;;;;;;106.82;20.98;;;;;;;;;;5045589;28;20041;-81
2022/01/13 01:47:31;;;;;;;167.48;25.63;;;;;;;;;;5046769;28;20045;-80
2022/01/13 01:49:59;;;;;;;100.95;21.48;;;;;;;;;;5045917;28;20654;-79
2022/01/13 01:52:26;;;;;;;121.65;22.83;;;;;;;;;;5046455;28;20052;-80
2022/01/13 01:54:52;;;;;;;93.72;21.80;;;;;;;;;;5046188;28;20049;-79
2022/01/13 01:57:19;;;;;;;144.00;24.08;;;;;;;;;;5043084;28;20451;-80
2022/01/13 01:59:46;;;;;;;161.63;25.90;;;;;;;;;;5045947;28;20037;-79
2022/01/13 02:02:14;;;;;;;117.95;21.48;;;;;;;;;;5045068;28;20776;-80
2022/01/13 02:04:40;;;;;;;179.02;24.35;;;;;;;;;;5045912;28;20484;-80
2022/01/13 02:07:07;;;;;;;151.73;26.58;;;;;;;;;;5046214;28;20047;-80
2022/01/13 02:09:38;;;;;;;187.13;28.45;;;;;;;;;;5046426;28;20045;-80
2022/01/13 02:12:09;;;;;;;133.88;25.73;;;;;;;;;;5045334;28;20045;-81
2022/01/13 02:14:47;;;;;;;126.80;26.63;;;;;;;;;;5043948;28;20100;-80
2022/01/13 02:17:21;;;;;;;157.88;28.33;;;;;;;;;;5045890;28;20055;-81
2022/01/13 02:19:47;;;;;;;150.30;27.83;;;;;;;;;;5046314;28;20067;-81
2022/01/13 02:22:14;;;;;;;146.38;25.05;;;;;;;;;;5026965;28;20051;-82
2022/01/13 02:24:40;;;;;;;90.30;21.67;;;;;;;;;;5027545;28;20051;-83
2022/01/13 02:27:07;;;;;;;125.30;23.52;;;;;;;;;;5046535;28;20037;-82
2022/01/13 02:29:33;;;;;;;133.93;26.33;;;;;;;;;;5045257;28;20075;-81
2022/01/13 02:32:00;;;;;;;143.45;25.95;;;;;;;;;;5045687;28;20072;-81
2022/01/13 02:34:26;;;;;;;123.30;26.25;;;;;;;;;;5057844;28;20094;-81
2022/01/13 02:36:56;;;;;;;189.23;29.85;;;;;;;;;;5043918;28;20041;-80
2022/01/13 02:39:23;;;;;;;109.50;26.20;;;;;;;;;;5047650;28;20064;-81
2022/01/13 02:41:49;;;;;;;101.97;24.10;;;;;;;;;;5027554;28;20432;-80
2022/01/13 02:44:18;;;;;;;113.95;26.48;;;;;;;;;;5030859;28;20091;-80
2022/01/13 02:49:14;;;;;;;131.68;25.77;;;;;;;;;;5038991;28;20045;-80
2022/01/13 02:51:42;;;;;;;115.55;27.55;;;;;;;;;;5032302;28;20072;-81
2022/01/13 02:54:08;;;;;;;53.03;18.77;;;;;;;;;;5028675;28;20096;-82
2022/01/13 02:56:35;;;;;;;120.03;27.77;;;;;;;;;;5025757;28;20045;-79
2022/01/13 02:59:01;;;;;;;134.95;29.42;;;;;;;;;;5025484;28;20049;-80
2022/01/13 03:01:27;;;;;;;122.97;27.08;;;;;;;;;;5025221;28;20034;-80
2022/01/13 03:03:54;;;;;;;126.05;28.38;;;;;;;;;;5022183;28;20137;-80
2022/01/13 03:06:24;;;;;;;125.05;28.25;;;;;;;;;;5025276;28;20493;-81
2022/01/13 03:08:50;;;;;;;134.38;28.38;;;;;;;;;;5024225;28;20046;-81
2022/01/13 03:11:17;;;;;;;141.85;30.15;;;;;;;;;;5025394;28;20099;-80
2022/01/13 03:13:43;;;;;;;120.43;27.17;;;;;;;;;;5025776;28;20049;-81
2022/01/13 03:16:10;;;;;;;78.57;20.77;;;;;;;;;;5024722;28;20040;-80
2022/01/13 03:18:39;;;;;;;164.98;30.55;;;;;;;;;;5024794;28;20105;-81
2022/01/13 03:21:06;;;;;;;111.10;23.60;;;;;;;;;;5024852;28;20037;-82
2022/01/13 03:23:33;;;;;;;122.68;27.10;;;;;;;;;;5024720;28;20041;-80
2022/01/13 03:26:00;;;;;;;112.20;26.48;;;;;;;;;;5022008;28;20132;-81
2022/01/13 03:28:30;;;;;;;134.82;25.45;;;;;;;;;;5025036;28;20393;-81
2022/01/13 03:30:58;;;;;;;149.05;29.98;;;;;;;;;;5007715;28;20042;-81
2022/01/13 03:33:24;;;;;;;158.75;30.58;;;;;;;;;;5025197;28;20108;-81
2022/01/13 03:35:50;;;;;;;115.80;27.33;;;;;;;;;;5025136;28;20499;-81
2022/01/13 03:38:16;;;;;;;148.88;29.92;;;;;;;;;;4990021;28;20041;-81
2022/01/13 03:40:43;;;;;;;174.68;28.75;;;;;;;;;;5025639;28;20037;-83
2022/01/13 03:43:10;;;;;;;126.47;27.27;;;;;;;;;;5024632;28;20034;-80
2022/01/13 03:45:36;;;;;;;141.85;28.95;;;;;;;;;;5025192;28;20045;-82
2022/01/13 03:48:03;;;;;;;119.75;26.15;;;;;;;;;;5024148;28;20121;-81
2022/01/13 03:50:29;;;;;;;157.65;29.17;;;;;;;;;;5025312;28;20044;-81
2022/01/13 03:53:01;;;;;;;193.10;32.13;;;;;;;;;;5032999;28;20138;-81
2022/01/13 03:55:38;;;;;;;132.07;30.50;;;;;;;;;;5021660;28;20053;-82
2022/01/13 03:58:13;;;;;;;202.43;31.50;;;;;;;;;;5031257;28;20496;-81
2022/01/13 04:00:58;;;;;;;132.80;30.35;;;;;;;;;;5030067;28;20767;-81
2022/01/13 04:03:24;;;;;;;153.80;30.88;;;;;;;;;;5044665;28;20052;-82
2022/01/13 04:06:04;;;;;;;106.25;24.00;;;;;;;;;;5030268;28;20455;-82
2022/01/13 04:08:30;;;;;;;135.93;27.40;;;;;;;;;;5047972;28;20041;-80
2022/01/13 04:11:10;;;;;;;89.13;19.65;;;;;;;;;;5048699;28;20114;-80
2022/01/13 04:16:24;;;;;;;139.95;29.08;;;;;;;;;;5047498;28;20051;-79
2022/01/13 04:18:51;;;;;;;147.00;29.75;;;;;;;;;;5045602;28;20114;-80
2022/01/13 04:21:18;;;;;;;135.55;30.13;;;;;;;;;;5047475;28;20083;-80
2022/01/13 04:23:45;;;;;;;145.60;32.28;;;;;;;;;;5048364;28;20037;-79
2022/01/13 04:26:12;;;;;;;135.75;29.55;;;;;;;;;;5047907;28;20044;-79
2022/01/13 04:28:40;;;;;;;154.50;31.13;;;;;;;;;;5029585;28;20123;-78
2022/01/13 04:31:06;;;;;;;161.02;29.40;;;;;;;;;;5047431;28;20075;-81
2022/01/13 04:33:36;;;;;;;158.38;30.63;;;;;;;;;;5046801;28;20080;-80
2022/01/13 04:36:04;;;;;;;156.57;29.77;;;;;;;;;;5013666;28;20147;-79
2022/01/13 04:38:30;;;;;;;203.00;31.60;;;;;;;;;;5059098;28;20067;-79
2022/01/13 04:40:59;;;;;;;181.70;29.13;;;;;;;;;;5067242;28;20103;-80
2022/01/13 04:43:26;;;;;;;182.05;31.92;;;;;;;;;;5067688;28;20527;-79
2022/01/13 04:45:53;;;;;;;183.05;30.65;;;;;;;;;;5055641;28;20041;-80
2022/01/13 04:48:19;;;;;;;165.88;29.40;;;;;;;;;;5046896;28;20041;-80
2022/01/13 04:50:45;;;;;;;180.52;29.20;;;;;;;;;;5046661;28;20121;-80
2022/01/13 04:53:12;;;;;;;148.07;27.83;;;;;;;;;;5047050;28;20072;-80
2022/01/13 04:55:38;;;;;;;176.82;33.85;;;;;;;;;;5047469;28;20053;-80
2022/01/13 04:58:06;;;;;;;176.38;32.78;;;;;;;;;;5048161;28;20586;-80
2022/01/13 05:00:33;;;;;;;175.70;32.13;;;;;;;;;;5045750;28;20040;-80
2022/01/13 05:02:59;;;;;;;174.15;31.88;;;;;;;;;;5044987;28;20602;-81
2022/01/13 05:05:26;;;;;;;153.15;29.17;;;;;;;;;;5045873;28;20037;-80
2022/01/13 05:07:53;;;;;;;145.38;28.73;;;;;;;;;;5045980;28;20052;-82
2022/01/13 05:10:20;;;;;;;168.05;32.83;;;;;;;;;;5045706;28;20052;-80
2022/01/13 05:12:52;;;;;;;184.15;32.67;;;;;;;;;;5046515;28;20075;-81
2022/01/13 05:15:27;;;;;;;159.77;29.17;;;;;;;;;;5045939;28;20098;-81
2022/01/13 05:20:23;;;;;;;179.75;31.38;;;;;;;;;;5046070;28;20556;-80
2022/01/13 05:22:50;;;;;;;127.72;29.58;;;;;;;;;;5044974;28;20056;-80
2022/01/13 05:25:17;;;;;;;166.57;30.83;;;;;;;;;;5045207;28;20436;-80
2022/01/13 05:27:43;;;;;;;152.10;29.77;;;;;;;;;;5045336;28;20136;-82
2022/01/13 05:30:10;;;;;;;178.05;31.08;;;;;;;;;;5042477;28;20045;-80
2022/01/13 05:32:36;;;;;;;143.70;28.75;;;;;;;;;;5044990;28;20052;-80
2022/01/13 05:35:03;;;;;;;115.00;26.83;;;;;;;;;;5044893;28;20119;-80
2022/01/13 05:37:30;;;;;;;116.93;24.25;;;;;;;;;;5045299;28;20029;-80
2022/01/13 05:39:56;;;;;;;186.88;34.05;;;;;;;;;;5045216;28;20090;-81
2022/01/13 05:42:22;;;;;;;130.20;27.65;;;;;;;;;;5045145;28;20041;-81
2022/01/13 05:44:48;;;;;;;145.18;28.63;;;;;;;;;;5045660;28;20044;-80
2022/01/13 05:47:14;;;;;;;158.15;31.23;;;;;;;;;;5045285;28;20913;-80
2022/01/13 05:49:41;;;;;;;136.27;28.88;;;;;;;;;;5041022;28;20045;-80
2022/01/13 05:52:08;;;;;;;168.65;33.17;;;;;;;;;;5045314;28;20041;-80
2022/01/13 05:54:34;;;;;;;166.18;32.10;;;;;;;;;;5027399;28;20140;-81
2022/01/13 05:57:01;;;;;;;153.45;27.52;;;;;;;;;;5027094;28;20103;-82
2022/01/13 05:59:27;;;;;;;106.35;21.67;;;;;;;;;;5044261;28;20550;-82
2022/01/13 06:01:53;;;;;;;164.82;31.58;;;;;;;;;;5042816;28;20128;-83
2022/01/13 06:04:19;;;;;;;173.35;32.35;;;;;;;;;;5046773;28;20037;-81
2022/01/13 06:06:45;;;;;;;149.73;29.10;;;;;;;;;;5043380;28;20052;-81
2022/01/13 06:09:11;;;;;;;152.65;31.45;;;;;;;;;;5029260;28;20041;-81
2022/01/13 06:11:40;;;;;;;144.95;28.38;;;;;;;;;;5026700;28;20116;-81
2022/01/13 06:14:07;;;;;;;125.82;27.35;;;;;;;;;;5009325;28;20044;-81
2022/01/13 06:16:33;;;;;;;125.13;29.77;;;;;;;;;;5043499;28;20037;-80
2022/01/13 06:18:59;;;;;;;178.65;33.38;;;;;;;;;;5042154;28;20045;-81
2022/01/13 06:21:26;;;;;;;155.02;32.13;;;;;;;;;;5041735;28;20052;-81
2022/01/13 06:23:52;;;;;;;147.93;33.80;;;;;;;;;;5038602;28;20041;-81
2022/01/13 06:26:18;;;;;;;127.28;29.88;;;;;;;;;;5040679;28;20556;-81
2022/01/13 06:28:44;;;;;;;153.15;33.88;;;;;;;;;;5024160;28;20195;-81
2022/01/13 06:31:10;;;;;;;139.02;29.85;;;;;;;;;;5036522;28;20405;-81
2022/01/13 06:33:36;;;;;;;175.20;35.10;;;;;;;;;;5042215;28;20045;-81
2022/01/13 06:36:05;;;;;;;134.75;32.13;;;;;;;;;;5040142;28;20041;-81
2022/01/13 06:38:32;;;;;;;128.30;31.60;;;;;;;;;;5024789;28;20149;-81
2022/01/13 06:40:58;;;;;;;143.25;32.25;;;;;;;;;;5045744;28;20063;-81
2022/01/13 06:43:24;;;;;;;139.57;32.35;;;;;;;;;;5051638;28;20094;-81
2022/01/13 06:45:50;;;;;;;132.73;32.55;;;;;;;;;;5035011;28;20048;-81
2022/01/13 06:48:16;;;;;;;131.85;31.30;;;;;;;;;;5047009;28;20037;-81
2022/01/13 06:50:42;;;;;;;144.38;32.80;;;;;;;;;;5007197;28;20129;-81
2022/01/13 06:53:08;;;;;;;133.88;31.08;;;;;;;;;;5041902;28;20132;-80
2022/01/13 06:55:35;;;;;;;119.85;30.50;;;;;;;;;;5042374;28;20045;-81
2022/01/13 06:58:01;;;;;;;137.65;32.50;;;;;;;;;;5043472;28;20415;-81
2022/01/13 07:00:27;;;;;;;131.10;32.33;;;;;;;;;;5024672;28;20051;-81
2022/01/13 07:02:55;;;;;;;140.40;32.78;;;;;;;;;;5007967;28;20403;-83
2022/01/13 07:05:22;;;;;;;132.45;31.65;;;;;;;;;;5041989;28;20071;-82
2022/01/13 07:07:48;;;;;;;131.30;32.63;;;;;;;;;;5040683;28;20493;-80
2022/01/13 07:10:14;;;;;;;109.93;29.08;;;;;;;;;;5043017;28;20145;-82
2022/01/13 07:12:41;;;;;;;129.38;31.98;;;;;;;;;;5043646;28;20400;-81
2022/01/13 07:15:08;;;;;;;118.65;29.58;;;;;;;;;;5043640;28;20175;-82
2022/01/13 07:17:41;;;;;;;93.95;24.85;;;;;;;;;;5004664;28;20080;-81
2022/01/13 07:20:13;;;;;;;125.47;31.08;;;;;;;;;;5024389;28;20056;-82
2022/01/13 07:22:39;;;;;;;130.82;33.50;;;;;;;;;;5043351;28;20520;-82
2022/01/13 07:25:09;;;;;;;144.10;35.47;;;;;;;;;;5043946;28;20041;-82
2022/01/13 07:27:35;;;;;;;163.70;36.95;;;;;;;;;;5045924;28;20060;-82
2022/01/13 07:30:01;;;;;;;139.73;33.28;;;;;;;;;;5045859;28;20496;-82
2022/01/13 07:32:27;;;;;;;158.10;34.17;;;;;;;;;;5045988;28;20223;-82
2022/01/13 07:34:53;;;;;;;158.43;34.80;;;;;;;;;;5045629;28;20036;-82
2022/01/13 07:37:22;;;;;;;150.05;31.58;;;;;;;;;;5045483;28;20052;-83
2022/01/13 07:39:48;;;;;;;150.85;35.03;;;;;;;;;;5027382;28;20120;-79
2022/01/13 07:42:15;;;;;;;135.35;31.63;;;;;;;;;;5045516;28;20067;-80
2022/01/13 07:44:41;;;;;;;135.57;33.30;;;;;;;;;;5043443;28;20045;-80
2022/01/13 07:47:07;;;;;;;145.27;37.20;;;;;;;;;;5045601;28;20142;-82
2022/01/13 07:49:35;;;;;;;173.00;36.25;;;;;;;;;;5043810;28;20919;-81
2022/01/13 07:52:01;;;;;;;141.43;35.15;;;;;;;;;;5045825;28;20048;-82
2022/01/13 07:54:30;;;;;;;173.10;38.53;;;;;;;;;;5024120;28;20134;-81
2022/01/13 07:56:56;;;;;;;161.88;39.45;;;;;;;;;;5043730;28;20283;-82
2022/01/13 07:59:27;;;;;;;143.30;37.78;;;;;;;;;;5044437;28;20052;-82
2022/01/13 08:01:54;;;;;;;154.05;40.17;;;;;;;;;;5026369;28;20045;-82
2022/01/13 08:04:21;;;;;;;163.00;39.42;;;;;;;;;;5045902;28;20041;-82
2022/01/13 08:06:47;;;;;;;160.88;38.15;;;;;;;;;;5044521;28;20120;-81
2022/01/13 08:09:13;;;;;;;158.43;39.63;;;;;;;;;;5046565;28;20407;-82
2022/01/13 08:11:39;;;;;;;154.25;40.83;;;;;;;;;;5026313;28;20510;-81
2022/01/13 08:14:05;;;;;;;162.40;42.60;;;;;;;;;;5046331;28;20048;-81
2022/01/13 08:16:35;;;;;;;151.95;40.33;;;;;;;;;;5045486;28;20508;-82
2022/01/13 08:21:45;;;;;;;140.10;38.97;;;;;;;;;;5044554;28;20068;-82
2022/01/13 08:24:13;;;;;;;137.45;38.25;;;;;;;;;;5045239;28;20433;-82
2022/01/13 08:26:40;;;;;;;124.47;39.72;;;;;;;;;;5027766;28;20039;-82
2022/01/13 08:29:07;;;;;;;132.68;38.90;;;;;;;;;;5028112;28;20850;-82
2022/01/13 08:31:33;;;;;;;126.70;37.25;;;;;;;;;;5047326;28;20408;-82
2022/01/13 08:33:59;;;;;;;118.78;37.10;;;;;;;;;;5044628;28;20048;-82
2022/01/13 08:36:25;;;;;;;115.07;37.78;;;;;;;;;;5045914;28;20049;-81
2022/01/13 08:38:53;;;;;;;123.60;37.40;;;;;;;;;;5027388;28;20055;-82
2022/01/13 08:41:19;;;;;;;111.57;36.28;;;;;;;;;;5044303;28;20045;-81
2022/01/13 08:43:45;;;;;;;109.82;35.72;;;;;;;;;;5048206;28;20089;-81
2022/01/13 08:46:11;;;;;;;128.02;38.90;;;;;;;;;;5054024;28;20033;-82
2022/01/13 08:48:37;;;;;;;116.00;39.67;;;;;;;;;;5063190;28;20037;-82
2022/01/13 08:51:04;;;;;;;106.97;37.80;;;;;;;;;;5065123;28;20029;-82
2022/01/13 08:53:30;;;;;;;109.32;38.47;;;;;;;;;;5051653;28;20045;-83
2022/01/13 08:55:58;;;;;;;111.93;36.17;;;;;;;;;;5048417;28;20103;-82
2022/01/13 08:58:25;;;;;;;112.65;35.97;;;;;;;;;;5029144;28;20049;-83
2022/01/13 09:00:52;;;;;;;100.70;36.15;;;;;;;;;;5046391;28;20041;-82
2022/01/13 09:03:18;;;;;;;98.97;35.55;;;;;;;;;;5047128;28;20044;-82
2022/01/13 09:05:46;;;;;;;101.55;34.50;;;;;;;;;;5049961;28;20443;-82
2022/01/13 09:08:13;;;;;;;101.68;34.90;;;;;;;;;;4988630;28;20053;-81
2022/01/13 09:10:40;;;;;;;103.68;35.67;;;;;;;;;;5049427;28;20128;-82
2022/01/13 09:13:12;;;;;;;80.15;30.42;;;;;;;;;;5027353;28;20429;-82
2022/01/13 09:15:41;;;;;;;93.45;33.92;;;;;;;;;;5043410;28;20068;-81
2022/01/13 09:18:19;;;;;;;94.72;33.03;;;;;;;;;;5034885;28;20037;-82
2022/01/13 09:20:46;;;;;;;92.05;34.00;;;;;;;;;;5042029;28;20466;-82
2022/01/13 09:23:13;;;;;;;103.32;33.15;;;;;;;;;;5044420;28;20045;-81
2022/01/13 09:25:39;;;;;;;99.72;32.20;;;;;;;;;;5045386;28;20040;-82
2022/01/13 09:28:08;;;;;;;68.78;24.45;;;;;;;;;;5027394;28;20754;-84
2022/01/13 09:30:34;;;;;;;74.72;27.45;;;;;;;;;;5044993;28;22291;-82
2022/01/13 09:33:01;;;;;;;78.70;30.08;;;;;;;;;;5011242;28;20056;-81
2022/01/13 09:35:27;;;;;;;74.95;30.23;;;;;;;;;;5046494;28;20039;-80
2022/01/13 09:37:53;;;;;;;77.78;30.60;;;;;;;;;;5028279;28;20048;-80
2022/01/13 09:40:19;;;;;;;90.03;30.58;;;;;;;;;;5046578;28;20103;-82
2022/01/13 09:42:46;;;;;;;82.88;31.88;;;;;;;;;;5011701;28;20511;-80
2022/01/13 09:45:13;;;;;;;96.32;31.42;;;;;;;;;;5047047;28;20041;-81
2022/01/13 09:47:40;;;;;;;76.35;30.08;;;;;;;;;;5027013;28;20605;-81
2022/01/13 09:50:10;;;;;;;78.68;28.98;;;;;;;;;;5043351;28;20063;-81
2022/01/13 09:52:37;;;;;;;85.95;29.52;;;;;;;;;;5026874;28;20049;-81
2022/01/13 09:55:04;;;;;;;81.90;31.13;;;;;;;;;;5045992;28;20126;-82
2022/01/13 09:57:31;;;;;;;79.30;31.25;;;;;;;;;;5045412;28;20140;-80
2022/01/13 09:59:58;;;;;;;80.75;30.63;;;;;;;;;;5043663;28;20602;-80
2022/01/13 10:02:25;;;;;;;62.60;26.30;;;;;;;;;;5046491;28;20395;-81
2022/01/13 10:04:56;;;;;;;54.25;23.73;;;;;;;;;;5044361;28;20033;-81
2022/01/13 10:07:55;;;;;;;78.85;30.85;;;;;;;;;;5044219;28;20131;-81
2022/01/13 10:10:24;;;;;;;79.63;30.23;;;;;;;;;;4984478;28;20114;-81
2022/01/13 10:13:00;;;;;;;77.85;27.70;;;;;;;;;;5042395;28;20049;-81
2022/01/13 10:18:11;;;;;;;92.28;32.30;;;;;;;;;;5042127;28;20050;-80
2022/01/13 10:20:37;;;;;;;78.47;31.10;;;;;;;;;;5026624;28;20036;-81
2022/01/13 10:23:11;;;;;;;78.15;31.38;;;;;;;;;;5044604;28;20045;-81
2022/01/13 10:25:38;;;;;;;76.50;30.15;;;;;;;;;;5044168;28;20041;-81
2022/01/13 10:28:18;;;;;;;84.78;32.22;;;;;;;;;;5045810;28;21844;-81
2022/01/13 10:30:45;;;;;;;69.38;28.95;;;;;;;;;;5043409;28;20066;-81
2022/01/13 10:33:22;;;;;;;74.28;32.17;;;;;;;;;;5044733;28;20120;-81
2022/01/13 10:35:49;;;;;;;73.28;31.23;;;;;;;;;;5042429;28;20048;-82
2022/01/13 10:38:16;;;;;;;83.50;32.67;;;;;;;;;;5045516;28;20075;-81
2022/01/13 10:40:46;;;;;;;74.05;32.92;;;;;;;;;;5022497;28;20457;-81
2022/01/13 10:43:12;;;;;;;81.57;33.28;;;;;;;;;;5044366;28;20029;-81
2022/01/13 10:45:43;;;;;;;76.03;34.33;;;;;;;;;;5028170;28;22021;-80
2022/01/13 10:48:11;;;;;;;70.25;32.65;;;;;;;;;;5043082;28;20048;-81
2022/01/13 10:50:49;;;;;;;66.50;30.23;;;;;;;;;;5044072;28;20132;-81
2022/01/13 10:53:27;;;;;;;74.70;31.63;;;;;;;;;;5052849;28;20477;-81
2022/01/13 10:56:18;;;;;;;47.55;25.15;;;;;;;;;;5057919;28;20101;-80
2022/01/13 10:58:51;;;;;;;72.13;32.78;;;;;;;;;;5051232;28;20083;-81
2022/01/13 11:01:17;;;;;;;70.45;30.45;;;;;;;;;;5045995;28;20055;-81
2022/01/13 11:03:44;;;;;;;62.13;29.73;;;;;;;;;;5045665;28;20114;-81
2022/01/13 11:06:11;;;;;;;58.53;25.88;;;;;;;;;;5028270;28;20052;-80
2022/01/13 11:08:45;;;;;;;62.35;25.73;;;;;;;;;;5046412;28;20487;-81
2022/01/13 11:11:33;;;;;;;78.63;34.08;;;;;;;;;;5025322;28;20125;-81
2022/01/13 11:14:07;;;;;;;75.35;33.95;;;;;;;;;;5045064;28;20060;-80
2022/01/13 11:16:34;;;;;;;86.32;34.85;;;;;;;;;;5045490;28;20044;-81
2022/01/13 11:19:00;;;;;;;84.82;34.72;;;;;;;;;;5026408;28;20057;-80
2022/01/13 11:21:26;;;;;;;80.15;35.22;;;;;;;;;;5027155;28;20037;-81
2022/01/13 11:23:53;;;;;;;69.47;30.45;;;;;;;;;;5013182;28;20072;-80
2022/01/13 11:26:26;;;;;;;82.43;32.78;;;;;;;;;;5026371;28;20049;-79
2022/01/13 11:28:53;;;;;;;61.13;29.33;;;;;;;;;;5044683;28;20512;-80
2022/01/13 11:31:19;;;;;;;67.05;33.08;;;;;;;;;;5040804;28;20079;-80
2022/01/13 11:33:46;;;;;;;72.22;34.33;;;;;;;;;;5044083;28;20035;-79
2022/01/13 11:36:12;;;;;;;69.38;31.60;;;;;;;;;;5043644;28;20033;-79
2022/01/13 11:38:39;;;;;;;75.57;33.95;;;;;;;;;;5044011;28;20087;-80
2022/01/13 11:41:07;;;;;;;79.30;34.88;;;;;;;;;;5040638;28;20069;-80
2022/01/13 11:43:36;;;;;;;78.40;34.58;;;;;;;;;;5025183;28;20504;-80
2022/01/13 11:46:31;;;;;;;66.38;31.58;;;;;;;;;;5044833;28;20060;-81
2022/01/13 11:49:01;;;;;;;64.57;33.60;;;;;;;;;;5014801;28;20535;-82
2022/01/13 11:51:39;;;;;;;72.88;33.22;;;;;;;;;;5041985;28;20045;-81
2022/01/13 11:54:06;;;;;;;67.35;28.65;;;;;;;;;;5043717;28;20064;-82
2022/01/13 11:56:32;;;;;;;76.85;33.95;;;;;;;;;;4990906;28;20046;-82
2022/01/13 11:58:58;;;;;;;82.70;34.63;;;;;;;;;;5044481;28;20512;-82
2022/01/13 12:01:29;;;;;;;79.53;33.65;;;;;;;;;;5044227;28;20586;-82
2022/01/13 12:03:56;;;;;;;78.00;34.22;;;;;;;;;;5044531;28;20076;-81
2022/01/13 12:06:32;;;;;;;86.28;36.55;;;;;;;;;;5044339;28;20043;-81
2022/01/13 12:08:58;;;;;;;77.20;35.03;;;;;;;;;;5044714;28;20041;-81
2022/01/13 12:11:41;;;;;;;80.10;34.83;;;;;;;;;;5043841;28;20052;-81
2022/01/13 12:14:28;;;;;;;76.18;35.83;;;;;;;;;;5048246;28;20056;-82
2022/01/13 12:17:05;;;;;;;80.65;35.72;;;;;;;;;;5015064;28;20049;-81
2022/01/13 12:19:36;;;;;;;77.80;34.88;;;;;;;;;;5030439;28;20084;-81
2022/01/13 12:22:06;;;;;;;83.03;36.65;;;;;;;;;;5048234;28;20056;-81
2022/01/13 12:24:47;;;;;;;66.20;30.85;;;;;;;;;;5028521;28;20052;-80
2022/01/13 12:27:13;;;;;;;66.25;33.63;;;;;;;;;;5048439;28;20057;-82
2022/01/13 12:29:43;;;;;;;68.07;33.38;;;;;;;;;;5048383;28;20048;-83
2022/01/13 12:32:10;;;;;;;68.38;34.22;;;;;;;;;;5046473;28;20033;-83
2022/01/13 12:34:39;;;;;;;59.95;31.50;;;;;;;;;;5047672;28;20053;-83
2022/01/13 12:37:25;;;;;;;59.10;32.80;;;;;;;;;;5030519;28;20048;-82
2022/01/13 12:39:56;;;;;;;64.10;33.80;;;;;;;;;;5030644;28;20048;-82
2022/01/13 12:42:24;;;;;;;61.63;31.17;;;;;;;;;;5048509;28;20044;-83
2022/01/13 12:47:36;;;;;;;63.72;32.53;;;;;;;;;;5030497;28;20480;-80
2022/01/13 12:50:12;;;;;;;59.20;31.23;;;;;;;;;;5047142;28;20080;-80
2022/01/13 12:52:38;;;;;;;56.03;30.67;;;;;;;;;;5030514;28;20033;-83
2022/01/13 12:55:04;;;;;;;49.15;28.33;;;;;;;;;;5049387;28;20137;-82
2022/01/13 12:57:30;;;;;;;50.60;26.42;;;;;;;;;;5053117;28;20063;-83
2022/01/13 12:59:57;;;;;;;54.50;27.50;;;;;;;;;;5060668;28;20036;-83
2022/01/13 13:02:24;;;;;;;49.40;26.92;;;;;;;;;;5065280;28;20052;-84
2022/01/13 13:04:50;;;;;;;48.28;26.52;;;;;;;;;;5039705;28;20048;-83
2022/01/13 13:07:17;;;;;;;52.65;27.17;;;;;;;;;;5049879;28;20040;-83
2022/01/13 13:09:43;;;;;;;46.50;25.70;;;;;;;;;;5029632;28;20516;-83
2022/01/13 13:12:13;;;;;;;54.05;26.70;;;;;;;;;;5047831;28;20672;-83
2022/01/13 13:17:28;;;;;;;47.45;26.40;;;;;;;;;;5046550;28;20045;-82
2022/01/13 13:19:55;;;;;;;47.60;25.40;;;;;;;;;;5046617;28;20041;-82
2022/01/13 13:22:21;;;;;;;49.25;26.30;;;;;;;;;;5030200;28;20112;-83
2022/01/13 13:24:47;;;;;;;47.72;24.85;;;;;;;;;;5045907;28;20095;-82
2022/01/13 13:27:13;;;;;;;53.72;26.77;;;;;;;;;;5045315;28;20037;-82
2022/01/13 13:29:39;;;;;;;55.22;26.95;;;;;;;;;;5047452;28;20044;-83
2022/01/13 13:32:05;;;;;;;54.70;26.60;;;;;;;;;;5047389;28;20033;-82
2022/01/13 13:34:32;;;;;;;52.13;24.67;;;;;;;;;;5047511;28;20044;-80
2022/01/13 13:36:58;;;;;;;48.75;24.73;;;;;;;;;;5046572;28;20040;-80
2022/01/13 13:39:26;;;;;;;50.92;23.10;;;;;;;;;;5029344;28;20116;-80
2022/01/13 13:41:54;;;;;;;50.58;25.27;;;;;;;;;;5044819;28;20040;-81
2022/01/13 13:44:31;;;;;;;43.75;23.20;;;;;;;;;;5045951;28;20119;-83
2022/01/13 13:47:00;;;;;;;50.55;22.73;;;;;;;;;;5046674;28;20060;-83
2022/01/13 13:49:27;;;;;;;48.20;22.10;;;;;;;;;;5047314;28;20410;-83
2022/01/13 13:52:00;;;;;;;42.97;22.15;;;;;;;;;;5028666;28;20043;-83
2022/01/13 13:54:34;;;;;;;37.72;20.60;;;;;;;;;;5047241;28;20106;-81
2022/01/13 13:57:03;;;;;;;41.55;19.95;;;;;;;;;;5038869;28;20060;-81
2022/01/13 13:59:34;;;;;;;40.67;20.92;;;;;;;;;;5038066;28;20040;-82
2022/01/13 14:02:02;;;;;;;46.35;20.38;;;;;;;;;;5038763;28;20678;-83
2022/01/13 14:04:34;;;;;;;39.10;19.48;;;;;;;;;;5024908;28;20049;-83
2022/01/13 14:07:01;;;;;;;34.78;18.00;;;;;;;;;;5027372;28;20163;-83
2022/01/13 14:09:40;;;;;;;37.85;19.95;;;;;;;;;;5042429;28;20113;-83
2022/01/13 14:12:07;;;;;;;38.35;18.25;;;;;;;;;;5006281;28;20715;-83
2022/01/13 14:14:41;;;;;;;36.53;17.13;;;;;;;;;;5041726;28;20067;-81
2022/01/13 14:17:08;;;;;;;31.38;15.55;;;;;;;;;;5046524;28;20203;-82
2022/01/13 14:19:34;;;;;;;40.40;15.30;;;;;;;;;;5045839;28;20156;-82
2022/01/13 14:22:01;;;;;;;38.72;15.75;;;;;;;;;;4994839;28;20499;-82
2022/01/13 14:24:27;;;;;;;43.17;17.83;;;;;;;;;;5044587;28;20087;-82
2022/01/13 14:26:53;;;;;;;37.85;16.35;;;;;;;;;;5041307;28;20041;-81
2022/01/13 14:29:28;;;;;;;35.88;16.00;;;;;;;;;;5029188;28;20045;-82
2022/01/13 14:32:14;;;;;;;33.95;16.23;;;;;;;;;;5029028;28;20048;-84
2022/01/13 14:34:43;;;;;;;38.60;16.75;;;;;;;;;;5045052;28;20542;-80
2022/01/13 14:37:10;;;;;;;36.17;16.30;;;;;;;;;;5043961;28;20033;-83
2022/01/13 14:39:36;;;;;;;36.53;15.88;;;;;;;;;;5045396;28;20040;-83
2022/01/13 14:42:03;;;;;;;32.58;16.35;;;;;;;;;;5046535;28;20123;-83
2022/01/13 14:44:29;;;;;;;35.63;16.13;;;;;;;;;;5056995;28;20049;-82
2022/01/13 14:47:04;;;;;;;34.28;16.83;;;;;;;;;;5060249;28;20055;-81